CheckWX is a tool to help pilots better visualize weather data.  It is not intended as a substitute for an official pre-flight weather briefing.

06:57:25 UTC

CYPH TAF
Inukjuak Airport
Inukjuak, Canada
TAF CYPH 190540Z 1906/1918 22008KT 3SM BR OVC003 TEMPO 1906/1912 P6SM NSW SCT003 OVC006 FM191200 VRB03KT P6SM FEW020 OVC040 TEMPO 1912/1918 BKN020 OVC040 BECMG 1913/1915 24008KT RMK FCST BASED ON AUTO OBS. NXT FCST BY 191200Z

Jun-19@
06:00 UTC

Jun-19 @ 06:00 UTC

Jun-19@
12:00 UTC

Jun-19 @ 12:00 UTC

TAF CYPH 190540Z 1906/1918 22008KT 3SM BR OVC003
Wind
  • 220° at 8 KTS
Conditions
Mist
Cloud Levels
  • Overcast at 300' AGL

Jun-19@
06:00 UTC

Jun-19 @ 06:00 UTC

Jun-19@
12:00 UTC

Jun-19 @ 12:00 UTC

TEMPO 1906/1912 P6SM NSW SCT003 OVC006

Temporary

Temporary Changes expected for less than half the time period

Conditions
No significant weather
Cloud Levels
  • Scattered at 300' AGL
  • Overcast at 600' AGL

Jun-19@
12:00 UTC

Jun-19 @ 12:00 UTC

Jun-19@
13:00 UTC

Jun-19 @ 13:00 UTC

FM191200 VRB03KT P6SM FEW020 OVC040

From

From Standard forecast or significant change

Wind
  • Variable at 3 KTS
Cloud Levels
  • Few at 2,000' AGL
  • Overcast at 4,000' AGL

Jun-19@
12:00 UTC

Jun-19 @ 12:00 UTC

Jun-19@
18:00 UTC

Jun-19 @ 18:00 UTC

TEMPO 1912/1918 BKN020 OVC040

Temporary

Temporary Changes expected for less than half the time period

Cloud Levels
  • Broken at 2,000' AGL
  • Overcast at 4,000' AGL

Jun-19@
13:00 UTC

Jun-19 @ 13:00 UTC

Jun-19@
18:00 UTC

Jun-19 @ 18:00 UTC

BECMG 1913/1915 24008KT RMK FCST BASED ON AUTO OBS. NXT FCST BY 191200Z

Becoming

Becoming Conditions expected by Wed, Jun 19, 2019 @ 15:00 UTC

Wind
  • 240° at 8 KTS
Cloud Levels
  • Few at 2,000' AGL
  • Overcast at 4,000' AGL